sensor_id;sensor_type;location;lat;lon;timestamp;P1;durP1;ratioP1;P2;durP2;ratioP2
9413;SDS011;4746;35.664;139.738;2023-02-01T00:01:07;11.63;;;7.03;;
9413;SDS011;4746;35.664;139.738;2023-02-01T00:03:36;12.57;;;7.90;;
9413;SDS011;4746;35.664;139.738;2023-02-01T00:06:04;11.33;;;8.20;;
9413;SDS011;4746;35.664;139.738;2023-02-01T00:08:31;11.57;;;7.73;;
9413;SDS011;4746;35.664;139.738;2023-02-01T00:11:04;12.67;;;7.73;;
9413;SDS011;4746;35.664;139.738;2023-02-01T00:13:36;13.10;;;8.10;;
9413;SDS011;4746;35.664;139.738;2023-02-01T00:16:10;10.37;;;7.97;;
9413;SDS011;4746;35.664;139.738;2023-02-01T00:18:47;10.17;;;7.63;;
9413;SDS011;4746;35.664;139.738;2023-02-01T00:21:19;10.77;;;8.63;;
9413;SDS011;4746;35.664;139.738;2023-02-01T00:23:47;9.70;;;8.10;;
9413;SDS011;4746;35.664;139.738;2023-02-01T00:26:34;11.53;;;8.27;;
9413;SDS011;4746;35.664;139.738;2023-02-01T00:29:04;9.30;;;8.07;;
9413;SDS011;4746;35.664;139.738;2023-02-01T00:31:38;11.37;;;7.63;;
9413;SDS011;4746;35.664;139.738;2023-02-01T00:34:06;12.43;;;8.90;;
9413;SDS011;4746;35.664;139.738;2023-02-01T00:36:40;10.13;;;8.10;;
9413;SDS011;4746;35.664;139.738;2023-02-01T00:39:09;9.93;;;8.40;;
9413;SDS011;4746;35.664;139.738;2023-02-01T00:41:38;9.17;;;7.93;;
9413;SDS011;4746;35.664;139.738;2023-02-01T00:44:06;9.63;;;8.13;;
9413;SDS011;4746;35.664;139.738;2023-02-01T00:46:33;11.27;;;8.43;;
9413;SDS011;4746;35.664;139.738;2023-02-01T00:49:01;11.73;;;8.17;;
9413;SDS011;4746;35.664;139.738;2023-02-01T00:51:29;9.60;;;8.60;;
9413;SDS011;4746;35.664;139.738;2023-02-01T00:53:57;13.33;;;9.50;;
9413;SDS011;4746;35.664;139.738;2023-02-01T00:56:25;15.67;;;10.50;;
9413;SDS011;4746;35.664;139.738;2023-02-01T00:58:55;11.07;;;9.70;;
9413;SDS011;4746;35.664;139.738;2023-02-01T01:01:24;14.57;;;8.83;;
9413;SDS011;4746;35.664;139.738;2023-02-01T01:03:55;13.83;;;9.80;;
9413;SDS011;4746;35.664;139.738;2023-02-01T01:06:27;11.50;;;9.73;;
9413;SDS011;4746;35.664;139.738;2023-02-01T01:08:58;12.03;;;9.57;;
9413;SDS011;4746;35.664;139.738;2023-02-01T01:11:30;12.20;;;9.80;;
9413;SDS011;4746;35.664;139.738;2023-02-01T01:14:01;11.07;;;9.90;;
9413;SDS011;4746;35.664;139.738;2023-02-01T01:16:31;10.77;;;9.67;;
9413;SDS011;4746;35.664;139.738;2023-02-01T01:18:59;12.77;;;8.97;;
9413;SDS011;4746;35.664;139.738;2023-02-01T01:21:27;10.17;;;9.17;;
9413;SDS011;4746;35.664;139.738;2023-02-01T01:23:56;10.77;;;9.67;;
9413;SDS011;4746;35.664;139.738;2023-02-01T01:26:25;11.30;;;8.90;;
9413;SDS011;4746;35.664;139.738;2023-02-01T01:28:54;11.23;;;9.87;;
9413;SDS011;4746;35.664;139.738;2023-02-01T01:31:24;35.63;;;31.97;;
9413;SDS011;4746;35.664;139.738;2023-02-01T01:33:54;28.03;;;19.30;;
9413;SDS011;4746;35.664;139.738;2023-02-01T01:36:25;15.30;;;13.33;;
9413;SDS011;4746;35.664;139.738;2023-02-01T01:38:53;11.63;;;10.53;;
9413;SDS011;4746;35.664;139.738;2023-02-01T01:41:22;12.33;;;10.43;;
9413;SDS011;4746;35.664;139.738;2023-02-01T01:43:56;15.03;;;9.97;;
9413;SDS011;4746;35.664;139.738;2023-02-01T01:46:33;13.87;;;10.43;;
9413;SDS011;4746;35.664;139.738;2023-02-01T01:51:47;11.70;;;10.57;;
9413;SDS011;4746;35.664;139.738;2023-02-01T01:54:25;13.57;;;10.53;;
9413;SDS011;4746;35.664;139.738;2023-02-01T01:57:37;9.93;;;8.60;;
9413;SDS011;4746;35.664;139.738;2023-02-01T02:00:11;9.73;;;7.17;;
9413;SDS011;4746;35.664;139.738;2023-02-01T02:02:44;10.10;;;7.10;;
9413;SDS011;4746;35.664;139.738;2023-02-01T02:05:20;8.97;;;7.10;;
9413;SDS011;4746;35.664;139.738;2023-02-01T02:07:49;12.87;;;7.60;;
9413;SDS011;4746;35.664;139.738;2023-02-01T02:10:22;9.07;;;6.40;;
9413;SDS011;4746;35.664;139.738;2023-02-01T02:13:10;7.70;;;7.00;;
9413;SDS011;4746;35.664;139.738;2023-02-01T02:15:42;8.03;;;5.90;;
9413;SDS011;4746;35.664;139.738;2023-02-01T02:19:07;8.00;;;5.20;;
9413;SDS011;4746;35.664;139.738;2023-02-01T02:34:18;5.17;;;4.13;;
9413;SDS011;4746;35.664;139.738;2023-02-01T02:39:54;6.23;;;3.77;;
9413;SDS011;4746;35.664;139.738;2023-02-01T02:42:43;7.43;;;4.27;;
9413;SDS011;4746;35.664;139.738;2023-02-01T02:48:36;5.03;;;3.37;;
9413;SDS011;4746;35.664;139.738;2023-02-01T02:54:45;5.27;;;2.90;;
9413;SDS011;4746;35.664;139.738;2023-02-01T02:57:25;5.87;;;3.77;;
9413;SDS011;4746;35.664;139.738;2023-02-01T03:00:24;9.03;;;3.07;;
9413;SDS011;4746;35.664;139.738;2023-02-01T03:03:16;6.03;;;2.90;;
9413;SDS011;4746;35.664;139.738;2023-02-01T03:06:02;5.63;;;2.93;;
9413;SDS011;4746;35.664;139.738;2023-02-01T03:08:31;7.60;;;3.33;;
9413;SDS011;4746;35.664;139.738;2023-02-01T03:11:00;9.33;;;3.50;;
9413;SDS011;4746;35.664;139.738;2023-02-01T03:13:55;6.10;;;2.80;;
9413;SDS011;4746;35.664;139.738;2023-02-01T03:19:14;8.53;;;3.33;;
9413;SDS011;4746;35.664;139.738;2023-02-01T03:22:05;4.80;;;2.60;;
9413;SDS011;4746;35.664;139.738;2023-02-01T03:24:41;5.83;;;3.00;;
9413;SDS011;4746;35.664;139.738;2023-02-01T03:27:44;8.40;;;2.97;;
9413;SDS011;4746;35.664;139.738;2023-02-01T03:30:35;6.07;;;3.50;;
9413;SDS011;4746;35.664;139.738;2023-02-01T03:33:16;14.37;;;4.87;;
9413;SDS011;4746;35.664;139.738;2023-02-01T03:35:52;8.03;;;3.30;;
9413;SDS011;4746;35.664;139.738;2023-02-01T03:38:57;6.13;;;3.60;;
9413;SDS011;4746;35.664;139.738;2023-02-01T03:44:41;9.67;;;3.20;;
9413;SDS011;4746;35.664;139.738;2023-02-01T03:47:42;4.93;;;3.47;;
9413;SDS011;4746;35.664;139.738;2023-02-01T03:50:19;4.33;;;3.17;;
9413;SDS011;4746;35.664;139.738;2023-02-01T03:55:52;4.03;;;3.23;;
9413;SDS011;4746;35.664;139.738;2023-02-01T03:58:22;5.10;;;3.70;;
9413;SDS011;4746;35.664;139.738;2023-02-01T04:00:51;4.80;;;2.87;;
9413;SDS011;4746;35.664;139.738;2023-02-01T04:03:25;7.50;;;3.77;;
9413;SDS011;4746;35.664;139.738;2023-02-01T04:05:54;6.60;;;3.50;;
9413;SDS011;4746;35.664;139.738;2023-02-01T04:08:22;4.53;;;3.47;;
9413;SDS011;4746;35.664;139.738;2023-02-01T04:10:50;11.80;;;3.97;;
9413;SDS011;4746;35.664;139.738;2023-02-01T04:13:18;7.30;;;3.50;;
9413;SDS011;4746;35.664;139.738;2023-02-01T04:15:46;7.60;;;3.90;;
9413;SDS011;4746;35.664;139.738;2023-02-01T04:18:15;8.17;;;3.10;;
9413;SDS011;4746;35.664;139.738;2023-02-01T04:20:42;9.77;;;3.67;;
9413;SDS011;4746;35.664;139.738;2023-02-01T04:23:10;7.53;;;2.87;;
9413;SDS011;4746;35.664;139.738;2023-02-01T04:25:38;5.03;;;3.50;;
9413;SDS011;4746;35.664;139.738;2023-02-01T04:28:05;9.47;;;2.80;;
9413;SDS011;4746;35.664;139.738;2023-02-01T04:30:33;4.73;;;2.60;;
9413;SDS011;4746;35.664;139.738;2023-02-01T04:33:00;5.40;;;3.30;;
9413;SDS011;4746;35.664;139.738;2023-02-01T04:35:30;4.80;;;3.30;;
9413;SDS011;4746;35.664;139.738;2023-02-01T04:37:58;8.13;;;3.43;;
9413;SDS011;4746;35.664;139.738;2023-02-01T04:40:26;4.63;;;2.80;;
9413;SDS011;4746;35.664;139.738;2023-02-01T04:42:53;6.77;;;3.27;;
9413;SDS011;4746;35.664;139.738;2023-02-01T04:45:21;6.70;;;3.47;;
9413;SDS011;4746;35.664;139.738;2023-02-01T04:47:49;6.60;;;3.00;;
9413;SDS011;4746;35.664;139.738;2023-02-01T04:50:17;6.73;;;2.93;;
9413;SDS011;4746;35.664;139.738;2023-02-01T04:52:45;7.17;;;3.20;;
9413;SDS011;4746;35.664;139.738;2023-02-01T04:55:13;6.13;;;2.97;;
9413;SDS011;4746;35.664;139.738;2023-02-01T04:57:41;7.53;;;3.00;;
9413;SDS011;4746;35.664;139.738;2023-02-01T05:00:08;5.77;;;2.70;;
9413;SDS011;4746;35.664;139.738;2023-02-01T05:02:37;5.63;;;2.90;;
9413;SDS011;4746;35.664;139.738;2023-02-01T05:05:04;5.03;;;3.10;;
9413;SDS011;4746;35.664;139.738;2023-02-01T05:07:32;6.00;;;2.73;;
9413;SDS011;4746;35.664;139.738;2023-02-01T05:10:00;6.40;;;2.70;;
9413;SDS011;4746;35.664;139.738;2023-02-01T05:12:27;5.90;;;2.60;;
9413;SDS011;4746;35.664;139.738;2023-02-01T05:15:13;7.10;;;2.80;;
9413;SDS011;4746;35.664;139.738;2023-02-01T05:17:41;7.63;;;2.80;;
9413;SDS011;4746;35.664;139.738;2023-02-01T05:20:08;7.80;;;3.27;;
9413;SDS011;4746;35.664;139.738;2023-02-01T05:22:36;5.03;;;2.80;;
9413;SDS011;4746;35.664;139.738;2023-02-01T05:25:04;5.70;;;2.43;;
9413;SDS011;4746;35.664;139.738;2023-02-01T05:27:32;8.67;;;2.53;;
9413;SDS011;4746;35.664;139.738;2023-02-01T05:30:00;6.57;;;2.83;;
9413;SDS011;4746;35.664;139.738;2023-02-01T05:32:30;7.27;;;2.80;;
9413;SDS011;4746;35.664;139.738;2023-02-01T05:34:58;9.35;;;2.80;;
9413;SDS011;4746;35.664;139.738;2023-02-01T05:37:26;4.75;;;2.63;;
9413;SDS011;4746;35.664;139.738;2023-02-01T05:39:54;4.15;;;2.33;;
9413;SDS011;4746;35.664;139.738;2023-02-01T05:42:21;5.15;;;2.80;;
9413;SDS011;4746;35.664;139.738;2023-02-01T05:44:49;3.67;;;2.50;;
9413;SDS011;4746;35.664;139.738;2023-02-01T05:47:17;9.73;;;3.00;;
9413;SDS011;4746;35.664;139.738;2023-02-01T05:49:46;4.67;;;2.10;;
9413;SDS011;4746;35.664;139.738;2023-02-01T05:52:13;6.00;;;2.63;;
9413;SDS011;4746;35.664;139.738;2023-02-01T05:54:45;10.40;;;2.93;;
9413;SDS011;4746;35.664;139.738;2023-02-01T05:57:13;4.43;;;2.67;;
9413;SDS011;4746;35.664;139.738;2023-02-01T05:59:41;4.05;;;2.30;;
9413;SDS011;4746;35.664;139.738;2023-02-01T06:02:11;5.47;;;2.90;;
9413;SDS011;4746;35.664;139.738;2023-02-01T06:04:39;4.97;;;2.13;;
9413;SDS011;4746;35.664;139.738;2023-02-01T06:07:07;4.47;;;2.40;;
9413;SDS011;4746;35.664;139.738;2023-02-01T06:09:36;5.10;;;2.70;;
9413;SDS011;4746;35.664;139.738;2023-02-01T06:12:05;5.50;;;2.63;;
9413;SDS011;4746;35.664;139.738;2023-02-01T06:14:32;7.07;;;2.50;;
9413;SDS011;4746;35.664;139.738;2023-02-01T06:17:00;2.67;;;2.30;;
9413;SDS011;4746;35.664;139.738;2023-02-01T06:19:28;4.37;;;2.90;;
9413;SDS011;4746;35.664;139.738;2023-02-01T06:21:55;5.60;;;2.50;;
9413;SDS011;4746;35.664;139.738;2023-02-01T06:24:23;6.00;;;2.90;;
9413;SDS011;4746;35.664;139.738;2023-02-01T06:26:50;10.93;;;2.47;;
9413;SDS011;4746;35.664;139.738;2023-02-01T06:29:18;5.47;;;2.30;;
9413;SDS011;4746;35.664;139.738;2023-02-01T06:31:45;9.57;;;2.40;;
9413;SDS011;4746;35.664;139.738;2023-02-01T06:34:13;4.03;;;2.63;;
9413;SDS011;4746;35.664;139.738;2023-02-01T06:36:41;5.10;;;2.45;;
9413;SDS011;4746;35.664;139.738;2023-02-01T06:39:08;4.37;;;2.77;;
9413;SDS011;4746;35.664;139.738;2023-02-01T06:41:41;5.43;;;2.83;;
9413;SDS011;4746;35.664;139.738;2023-02-01T06:44:13;3.27;;;2.40;;
9413;SDS011;4746;35.664;139.738;2023-02-01T06:46:41;6.97;;;2.80;;
9413;SDS011;4746;35.664;139.738;2023-02-01T06:49:09;5.83;;;2.97;;
9413;SDS011;4746;35.664;139.738;2023-02-01T06:51:37;5.37;;;2.57;;
9413;SDS011;4746;35.664;139.738;2023-02-01T06:54:04;4.30;;;2.50;;
9413;SDS011;4746;35.664;139.738;2023-02-01T06:56:32;7.70;;;2.80;;
9413;SDS011;4746;35.664;139.738;2023-02-01T06:59:01;4.80;;;2.40;;
9413;SDS011;4746;35.664;139.738;2023-02-01T07:01:31;5.07;;;2.40;;
9413;SDS011;4746;35.664;139.738;2023-02-01T07:04:00;7.70;;;2.40;;
9413;SDS011;4746;35.664;139.738;2023-02-01T07:06:27;7.17;;;3.17;;
9413;SDS011;4746;35.664;139.738;2023-02-01T07:08:55;5.73;;;2.90;;
9413;SDS011;4746;35.664;139.738;2023-02-01T07:11:25;7.23;;;2.90;;
9413;SDS011;4746;35.664;139.738;2023-02-01T07:13:53;7.67;;;3.10;;
9413;SDS011;4746;35.664;139.738;2023-02-01T07:16:21;5.30;;;3.33;;
9413;SDS011;4746;35.664;139.738;2023-02-01T07:18:49;4.20;;;2.47;;
9413;SDS011;4746;35.664;139.738;2023-02-01T07:21:19;6.73;;;3.27;;
9413;SDS011;4746;35.664;139.738;2023-02-01T07:23:46;5.20;;;2.33;;
9413;SDS011;4746;35.664;139.738;2023-02-01T07:26:14;6.20;;;2.60;;
9413;SDS011;4746;35.664;139.738;2023-02-01T07:28:42;4.53;;;2.57;;
9413;SDS011;4746;35.664;139.738;2023-02-01T07:31:13;5.00;;;2.77;;
9413;SDS011;4746;35.664;139.738;2023-02-01T07:33:46;8.67;;;2.87;;
9413;SDS011;4746;35.664;139.738;2023-02-01T07:36:20;5.83;;;2.70;;
9413;SDS011;4746;35.664;139.738;2023-02-01T07:38:47;6.40;;;3.10;;
9413;SDS011;4746;35.664;139.738;2023-02-01T07:41:17;5.87;;;3.03;;
9413;SDS011;4746;35.664;139.738;2023-02-01T07:43:45;7.70;;;2.80;;
9413;SDS011;4746;35.664;139.738;2023-02-01T07:46:13;3.73;;;2.37;;
9413;SDS011;4746;35.664;139.738;2023-02-01T07:48:42;6.47;;;3.17;;
9413;SDS011;4746;35.664;139.738;2023-02-01T07:51:10;7.07;;;2.77;;
9413;SDS011;4746;35.664;139.738;2023-02-01T07:53:45;6.50;;;3.13;;
9413;SDS011;4746;35.664;139.738;2023-02-01T07:56:16;6.57;;;3.00;;
9413;SDS011;4746;35.664;139.738;2023-02-01T07:58:53;6.10;;;2.80;;
9413;SDS011;4746;35.664;139.738;2023-02-01T08:01:27;4.47;;;2.27;;
9413;SDS011;4746;35.664;139.738;2023-02-01T08:04:00;4.83;;;2.87;;
9413;SDS011;4746;35.664;139.738;2023-02-01T08:06:32;7.40;;;3.27;;
9413;SDS011;4746;35.664;139.738;2023-02-01T08:09:00;6.60;;;2.60;;
9413;SDS011;4746;35.664;139.738;2023-02-01T08:11:29;6.47;;;2.77;;
9413;SDS011;4746;35.664;139.738;2023-02-01T08:14:00;5.73;;;2.93;;
9413;SDS011;4746;35.664;139.738;2023-02-01T08:16:29;6.23;;;2.50;;
9413;SDS011;4746;35.664;139.738;2023-02-01T08:19:00;5.63;;;2.40;;
9413;SDS011;4746;35.664;139.738;2023-02-01T08:21:28;9.60;;;2.93;;
9413;SDS011;4746;35.664;139.738;2023-02-01T08:24:05;6.83;;;2.93;;
9413;SDS011;4746;35.664;139.738;2023-02-01T08:26:37;8.47;;;3.20;;
9413;SDS011;4746;35.664;139.738;2023-02-01T08:29:06;5.57;;;2.80;;
9413;SDS011;4746;35.664;139.738;2023-02-01T08:31:38;6.87;;;3.03;;
9413;SDS011;4746;35.664;139.738;2023-02-01T08:34:12;5.20;;;3.10;;
9413;SDS011;4746;35.664;139.738;2023-02-01T08:36:39;8.87;;;3.10;;
9413;SDS011;4746;35.664;139.738;2023-02-01T08:39:08;4.97;;;3.13;;
9413;SDS011;4746;35.664;139.738;2023-02-01T08:41:37;7.90;;;3.67;;
9413;SDS011;4746;35.664;139.738;2023-02-01T08:44:07;6.17;;;2.87;;
9413;SDS011;4746;35.664;139.738;2023-02-01T08:46:35;6.87;;;3.70;;
9413;SDS011;4746;35.664;139.738;2023-02-01T08:49:02;5.00;;;3.50;;
9413;SDS011;4746;35.664;139.738;2023-02-01T08:51:30;4.53;;;2.73;;
9413;SDS011;4746;35.664;139.738;2023-02-01T08:53:57;9.50;;;3.37;;
9413;SDS011;4746;35.664;139.738;2023-02-01T08:56:26;4.73;;;2.97;;
9413;SDS011;4746;35.664;139.738;2023-02-01T08:58:53;5.60;;;3.27;;
9413;SDS011;4746;35.664;139.738;2023-02-01T09:01:21;5.77;;;3.00;;
9413;SDS011;4746;35.664;139.738;2023-02-01T09:03:48;3.73;;;2.90;;
9413;SDS011;4746;35.664;139.738;2023-02-01T09:06:19;6.23;;;3.20;;
9413;SDS011;4746;35.664;139.738;2023-02-01T09:08:49;4.60;;;3.07;;
9413;SDS011;4746;35.664;139.738;2023-02-01T09:11:17;4.47;;;3.10;;
9413;SDS011;4746;35.664;139.738;2023-02-01T09:13:46;3.90;;;2.37;;
9413;SDS011;4746;35.664;139.738;2023-02-01T09:16:14;4.93;;;2.63;;
9413;SDS011;4746;35.664;139.738;2023-02-01T09:18:43;2.97;;;2.40;;
9413;SDS011;4746;35.664;139.738;2023-02-01T09:21:11;5.47;;;2.70;;
9413;SDS011;4746;35.664;139.738;2023-02-01T09:23:38;4.23;;;2.50;;
9413;SDS011;4746;35.664;139.738;2023-02-01T09:26:06;4.23;;;2.90;;
9413;SDS011;4746;35.664;139.738;2023-02-01T09:28:37;7.70;;;3.30;;
9413;SDS011;4746;35.664;139.738;2023-02-01T09:31:04;5.97;;;2.77;;
9413;SDS011;4746;35.664;139.738;2023-02-01T09:33:32;6.07;;;3.00;;
9413;SDS011;4746;35.664;139.738;2023-02-01T09:36:00;4.90;;;2.77;;
9413;SDS011;4746;35.664;139.738;2023-02-01T09:38:30;7.60;;;2.83;;
9413;SDS011;4746;35.664;139.738;2023-02-01T09:40:58;5.07;;;2.97;;
9413;SDS011;4746;35.664;139.738;2023-02-01T09:46:24;3.70;;;2.27;;
9413;SDS011;4746;35.664;139.738;2023-02-01T09:48:56;4.57;;;2.67;;
9413;SDS011;4746;35.664;139.738;2023-02-01T09:51:37;3.83;;;2.50;;
9413;SDS011;4746;35.664;139.738;2023-02-01T09:54:20;3.60;;;2.80;;
9413;SDS011;4746;35.664;139.738;2023-02-01T09:59:59;3.23;;;2.57;;
9413;SDS011;4746;35.664;139.738;2023-02-01T10:02:40;4.47;;;2.67;;
9413;SDS011;4746;35.664;139.738;2023-02-01T10:05:13;8.77;;;2.97;;
9413;SDS011;4746;35.664;139.738;2023-02-01T10:07:58;5.07;;;2.87;;
9413;SDS011;4746;35.664;139.738;2023-02-01T10:10:47;4.67;;;2.90;;
9413;SDS011;4746;35.664;139.738;2023-02-01T10:16:20;4.00;;;2.87;;
9413;SDS011;4746;35.664;139.738;2023-02-01T10:23:04;3.77;;;2.73;;
9413;SDS011;4746;35.664;139.738;2023-02-01T10:25:54;5.17;;;3.00;;
9413;SDS011;4746;35.664;139.738;2023-02-01T10:28:24;2.93;;;2.60;;
9413;SDS011;4746;35.664;139.738;2023-02-01T10:30:56;4.10;;;2.73;;
9413;SDS011;4746;35.664;139.738;2023-02-01T10:33:27;4.70;;;3.33;;
9413;SDS011;4746;35.664;139.738;2023-02-01T10:38:43;6.40;;;3.27;;
9413;SDS011;4746;35.664;139.738;2023-02-01T10:41:14;4.53;;;3.90;;
9413;SDS011;4746;35.664;139.738;2023-02-01T10:43:50;8.33;;;3.90;;
9413;SDS011;4746;35.664;139.738;2023-02-01T10:46:24;4.50;;;3.30;;
9413;SDS011;4746;35.664;139.738;2023-02-01T10:48:54;3.70;;;2.60;;
9413;SDS011;4746;35.664;139.738;2023-02-01T10:51:30;3.40;;;3.10;;
9413;SDS011;4746;35.664;139.738;2023-02-01T10:54:21;3.20;;;2.80;;
9413;SDS011;4746;35.664;139.738;2023-02-01T10:57:06;4.70;;;3.00;;
9413;SDS011;4746;35.664;139.738;2023-02-01T10:59:36;3.43;;;3.10;;
9413;SDS011;4746;35.664;139.738;2023-02-01T11:05:05;3.60;;;3.00;;
9413;SDS011;4746;35.664;139.738;2023-02-01T11:07:38;4.77;;;3.10;;
9413;SDS011;4746;35.664;139.738;2023-02-01T11:13:16;4.60;;;3.03;;
9413;SDS011;4746;35.664;139.738;2023-02-01T11:15:45;5.53;;;3.27;;
9413;SDS011;4746;35.664;139.738;2023-02-01T11:18:26;5.23;;;2.97;;
9413;SDS011;4746;35.664;139.738;2023-02-01T11:20:57;3.83;;;3.10;;
9413;SDS011;4746;35.664;139.738;2023-02-01T11:23:27;6.37;;;3.17;;
9413;SDS011;4746;35.664;139.738;2023-02-01T11:26:10;3.90;;;2.83;;
9413;SDS011;4746;35.664;139.738;2023-02-01T11:29:32;6.50;;;3.60;;
9413;SDS011;4746;35.664;139.738;2023-02-01T11:31:43;2.83;;;2.63;;
9413;SDS011;4746;35.664;139.738;2023-02-01T11:34:13;2.70;;;2.50;;
9413;SDS011;4746;35.664;139.738;2023-02-01T11:36:50;3.57;;;2.10;;
9413;SDS011;4746;35.664;139.738;2023-02-01T11:39:23;3.30;;;3.00;;
9413;SDS011;4746;35.664;139.738;2023-02-01T11:44:43;3.63;;;2.83;;
9413;SDS011;4746;35.664;139.738;2023-02-01T11:47:29;3.30;;;2.70;;
9413;SDS011;4746;35.664;139.738;2023-02-01T11:50:16;4.93;;;2.80;;
9413;SDS011;4746;35.664;139.738;2023-02-01T11:53:09;5.70;;;3.00;;
9413;SDS011;4746;35.664;139.738;2023-02-01T11:56:11;3.80;;;2.43;;
9413;SDS011;4746;35.664;139.738;2023-02-01T11:58:58;4.20;;;2.70;;
9413;SDS011;4746;35.664;139.738;2023-02-01T12:13:21;3.00;;;2.70;;
9413;SDS011;4746;35.664;139.738;2023-02-01T12:31:09;3.93;;;2.67;;
9413;SDS011;4746;35.664;139.738;2023-02-01T12:43:11;4.17;;;2.93;;
9413;SDS011;4746;35.664;139.738;2023-02-01T12:45:55;4.40;;;2.60;;
9413;SDS011;4746;35.664;139.738;2023-02-01T12:48:51;3.63;;;2.67;;
9413;SDS011;4746;35.664;139.738;2023-02-01T12:51:28;3.60;;;2.77;;
9413;SDS011;4746;35.664;139.738;2023-02-01T12:54:21;5.43;;;3.47;;
9413;SDS011;4746;35.664;139.738;2023-02-01T12:57:16;3.37;;;3.00;;
9413;SDS011;4746;35.664;139.738;2023-02-01T13:02:44;4.83;;;3.67;;
9413;SDS011;4746;35.664;139.738;2023-02-01T13:08:21;5.03;;;3.17;;
9413;SDS011;4746;35.664;139.738;2023-02-01T13:11:17;3.40;;;3.10;;
9413;SDS011;4746;35.664;139.738;2023-02-01T13:22:25;6.90;;;4.20;;
9413;SDS011;4746;35.664;139.738;2023-02-01T13:25:05;4.83;;;4.33;;
9413;SDS011;4746;35.664;139.738;2023-02-01T13:27:44;7.00;;;4.07;;
9413;SDS011;4746;35.664;139.738;2023-02-01T13:30:37;5.23;;;3.70;;
9413;SDS011;4746;35.664;139.738;2023-02-01T13:39:45;5.30;;;4.80;;
9413;SDS011;4746;35.664;139.738;2023-02-01T13:42:25;8.23;;;5.47;;
9413;SDS011;4746;35.664;139.738;2023-02-01T13:45:19;6.50;;;5.90;;
9413;SDS011;4746;35.664;139.738;2023-02-01T13:47:56;8.23;;;5.93;;
9413;SDS011;4746;35.664;139.738;2023-02-01T13:50:29;6.37;;;5.80;;
9413;SDS011;4746;35.664;139.738;2023-02-01T13:53:11;8.70;;;6.50;;
9413;SDS011;4746;35.664;139.738;2023-02-01T13:56:38;7.83;;;6.03;;
9413;SDS011;4746;35.664;139.738;2023-02-01T13:58:49;7.67;;;6.87;;
9413;SDS011;4746;35.664;139.738;2023-02-01T14:09:14;8.30;;;7.10;;
9413;SDS011;4746;35.664;139.738;2023-02-01T14:12:04;8.33;;;7.10;;
9413;SDS011;4746;35.664;139.738;2023-02-01T14:15:19;8.77;;;6.40;;
9413;SDS011;4746;35.664;139.738;2023-02-01T14:17:50;8.53;;;7.50;;
9413;SDS011;4746;35.664;139.738;2023-02-01T14:23:12;8.17;;;7.43;;
9413;SDS011;4746;35.664;139.738;2023-02-01T14:25:47;8.73;;;7.90;;
9413;SDS011;4746;35.664;139.738;2023-02-01T14:28:32;7.87;;;6.87;;
9413;SDS011;4746;35.664;139.738;2023-02-01T14:31:14;9.03;;;6.00;;
9413;SDS011;4746;35.664;139.738;2023-02-01T14:34:19;6.87;;;6.17;;
9413;SDS011;4746;35.664;139.738;2023-02-01T14:39:52;5.50;;;5.00;;
9413;SDS011;4746;35.664;139.738;2023-02-01T14:42:33;5.40;;;5.00;;
9413;SDS011;4746;35.664;139.738;2023-02-01T14:50:39;6.73;;;5.27;;
9413;SDS011;4746;35.664;139.738;2023-02-01T14:53:15;5.13;;;4.63;;
9413;SDS011;4746;35.664;139.738;2023-02-01T14:55:52;4.97;;;4.50;;
9413;SDS011;4746;35.664;139.738;2023-02-01T15:01:28;4.30;;;3.90;;
9413;SDS011;4746;35.664;139.738;2023-02-01T15:09:32;4.33;;;3.93;;
9413;SDS011;4746;35.664;139.738;2023-02-01T15:14:46;4.03;;;3.70;;
9413;SDS011;4746;35.664;139.738;2023-02-01T15:17:54;4.20;;;3.90;;
9413;SDS011;4746;35.664;139.738;2023-02-01T15:20:27;4.47;;;4.07;;
9413;SDS011;4746;35.664;139.738;2023-02-01T15:25:30;4.10;;;3.70;;
9413;SDS011;4746;35.664;139.738;2023-02-01T15:28:04;4.30;;;3.90;;
9413;SDS011;4746;35.664;139.738;2023-02-01T15:30:38;4.17;;;3.67;;
9413;SDS011;4746;35.664;139.738;2023-02-01T15:33:17;6.10;;;3.80;;
9413;SDS011;4746;35.664;139.738;2023-02-01T15:35:50;3.83;;;3.53;;
9413;SDS011;4746;35.664;139.738;2023-02-01T15:40:56;3.60;;;3.30;;
9413;SDS011;4746;35.664;139.738;2023-02-01T15:46:40;3.60;;;3.30;;
9413;SDS011;4746;35.664;139.738;2023-02-01T15:58:05;3.07;;;2.60;;
9413;SDS011;4746;35.664;139.738;2023-02-01T16:00:42;4.17;;;3.00;;
9413;SDS011;4746;35.664;139.738;2023-02-01T16:09:17;3.07;;;2.30;;
9413;SDS011;4746;35.664;139.738;2023-02-01T16:14:22;2.27;;;2.17;;
9413;SDS011;4746;35.664;139.738;2023-02-01T16:16:51;2.37;;;2.20;;
9413;SDS011;4746;35.664;139.738;2023-02-01T16:19:22;2.23;;;2.13;;
9413;SDS011;4746;35.664;139.738;2023-02-01T16:21:53;2.57;;;2.37;;
9413;SDS011;4746;35.664;139.738;2023-02-01T16:24:22;2.80;;;2.53;;
9413;SDS011;4746;35.664;139.738;2023-02-01T16:26:51;2.27;;;2.17;;
9413;SDS011;4746;35.664;139.738;2023-02-01T16:29:18;2.60;;;2.40;;
9413;SDS011;4746;35.664;139.738;2023-02-01T16:31:47;3.00;;;2.80;;
9413;SDS011;4746;35.664;139.738;2023-02-01T16:34:16;3.10;;;2.50;;
9413;SDS011;4746;35.664;139.738;2023-02-01T16:36:46;3.00;;;2.60;;
9413;SDS011;4746;35.664;139.738;2023-02-01T16:39:21;2.63;;;2.17;;
9413;SDS011;4746;35.664;139.738;2023-02-01T16:41:50;2.50;;;2.40;;
9413;SDS011;4746;35.664;139.738;2023-02-01T16:44:17;2.40;;;2.20;;
9413;SDS011;4746;35.664;139.738;2023-02-01T16:46:45;2.00;;;1.80;;
9413;SDS011;4746;35.664;139.738;2023-02-01T16:49:23;2.27;;;2.13;;
9413;SDS011;4746;35.664;139.738;2023-02-01T16:51:52;2.20;;;2.00;;
9413;SDS011;4746;35.664;139.738;2023-02-01T16:54:24;2.83;;;1.93;;
9413;SDS011;4746;35.664;139.738;2023-02-01T16:56:53;2.77;;;1.90;;
9413;SDS011;4746;35.664;139.738;2023-02-01T16:59:20;2.10;;;2.00;;
9413;SDS011;4746;35.664;139.738;2023-02-01T17:01:48;2.20;;;2.00;;
9413;SDS011;4746;35.664;139.738;2023-02-01T17:04:15;1.90;;;1.30;;
9413;SDS011;4746;35.664;139.738;2023-02-01T17:06:46;2.40;;;1.60;;
9413;SDS011;4746;35.664;139.738;2023-02-01T17:09:28;1.70;;;1.60;;
9413;SDS011;4746;35.664;139.738;2023-02-01T17:11:55;1.80;;;1.70;;
9413;SDS011;4746;35.664;139.738;2023-02-01T17:14:23;1.70;;;1.60;;
9413;SDS011;4746;35.664;139.738;2023-02-01T17:16:50;1.50;;;1.40;;
9413;SDS011;4746;35.664;139.738;2023-02-01T17:19:20;1.40;;;1.30;;
9413;SDS011;4746;35.664;139.738;2023-02-01T17:21:50;1.30;;;1.20;;
9413;SDS011;4746;35.664;139.738;2023-02-01T17:24:28;1.47;;;1.20;;
9413;SDS011;4746;35.664;139.738;2023-02-01T17:26:57;1.30;;;1.30;;
9413;SDS011;4746;35.664;139.738;2023-02-01T17:29:25;1.17;;;1.00;;
9413;SDS011;4746;35.664;139.738;2023-02-01T17:31:53;1.20;;;1.20;;
9413;SDS011;4746;35.664;139.738;2023-02-01T17:34:24;1.33;;;1.27;;
9413;SDS011;4746;35.664;139.738;2023-02-01T17:36:52;1.00;;;1.00;;
9413;SDS011;4746;35.664;139.738;2023-02-01T17:39:20;1.30;;;1.20;;
9413;SDS011;4746;35.664;139.738;2023-02-01T17:42:08;1.13;;;1.03;;
9413;SDS011;4746;35.664;139.738;2023-02-01T17:44:37;1.03;;;1.03;;
9413;SDS011;4746;35.664;139.738;2023-02-01T17:47:05;1.07;;;1.07;;
9413;SDS011;4746;35.664;139.738;2023-02-01T17:49:32;1.20;;;1.10;;
9413;SDS011;4746;35.664;139.738;2023-02-01T17:52:00;1.30;;;1.30;;
9413;SDS011;4746;35.664;139.738;2023-02-01T17:54:28;0.90;;;0.90;;
9413;SDS011;4746;35.664;139.738;2023-02-01T17:56:55;1.10;;;1.10;;
9413;SDS011;4746;35.664;139.738;2023-02-01T17:59:27;0.97;;;0.97;;
9413;SDS011;4746;35.664;139.738;2023-02-01T18:01:55;1.83;;;1.20;;
9413;SDS011;4746;35.664;139.738;2023-02-01T18:04:25;1.20;;;1.13;;
9413;SDS011;4746;35.664;139.738;2023-02-01T18:06:53;2.00;;;0.93;;
9413;SDS011;4746;35.664;139.738;2023-02-01T18:09:22;0.97;;;0.97;;
9413;SDS011;4746;35.664;139.738;2023-02-01T18:11:49;1.07;;;1.07;;
9413;SDS011;4746;35.664;139.738;2023-02-01T18:14:20;0.90;;;0.90;;